Terminal Aerodrome Forecast
Issued by NWS Shreveport, LA

Home | Current Version | Previous Version | Text Only | Print | Product List | Glossary On
Versions: 1 2 3 4 5 6 7 8 9 10 11 12 13 14 15
000
FTUS44 KSHV 301749
TAFTXK
TAF
KTXK 301749Z 3018/0118 26008KT P6SM SCT025 SCT250
     FM301900 24008KT P6SM SCT045 BKN250
     FM010000 22007KT P6SM BKN050 BKN150
     FM010200 23006KT P6SM VCTS BKN050CB BKN090
     FM010500 21005KT P6SM BKN050 BKN100
     FM010700 21005KT P6SM SCT050 BKN150=

USA.gov is the U.S. government's official web portal to all federal, state and local government web resources and services.